Aviation Digital Data Service (ADDS)

Output produced by METARs form (0351 UTC 06 December 2019)
found at http://www.aviationweather.gov/metar/data/
 
RJTT 060330Z 02011KT 9999 FEW030 BKN070 BKN/// 09/M00 Q1024 NOSIG RMK 1CU030 5AC070 A3024
RJTT 060300Z 03010KT 9999 FEW030 BKN070 BKN/// 09/M02 Q1024 NOSIG RMK 1CU030 6AC070 A3025
TAF RJTT 052305Z 0600/0706 36014KT 9999 FEW030 
     TEMPO 0700/0706 4000 -RA BR FEW005 BKN008
       
RJAA 060330Z 03006KT 350V060 9999 FEW030 BKN070 BKN/// 08/M01 Q1024 NOSIG RMK 1CU030 6AC070 A3025
RJAA 060300Z 01008KT 340V050 9999 FEW030 BKN070 BKN/// 08/M01 Q1024 NOSIG RMK 1CU030 6AC070 A3025 MOD TURB OBS AT 0236Z 10NM TO 25NM SE NARITA BTN FL180 AND FL220 IN CMB B772 UAL827
TAF RJAA 052306Z 0600/0706 36010KT 9999 FEW030 SCT045 
     TEMPO 0700/0706 4000 -RA BR FEW003 BKN005
       
RJGG 060330Z 34018KT 9999 FEW015 BKN/// 10/M01 Q1025 NOSIG
RJGG 060300Z 34022KT 9999 FEW015 BKN/// 10/M01 Q1025 NOSIG
TAF RJGG 052305Z 0600/0706 33022KT 9999 FEW020 
     BECMG 0618/0621 34012KT
       
RJBB 060330Z 03010KT 9999 FEW025 BKN045 BKN/// 09/01 Q1027 NOSIG
RJBB 060320Z 35013KT 340V040 9999 FEW025 BKN045 BKN/// 09/01 Q1027 RMK 1CU025 5CU045 A3034
RJBB 060300Z 05009KT 9999 FEW025 SCT045 BKN/// 10/02 Q1027 NOSIG
TAF RJBB 052306Z 0600/0706 35013KT 9999 FEW025 SCT045 
     BECMG 0610/0612 07008KT
       
RJOO 060300Z 33011KT 300V360 9999 FEW030 BKN/// 09/01 Q1027 RMK 1CU030 A3034
TAF RJOO 052307Z 0600/0706 34008KT 9999 FEW025 SCT035 
     BECMG 0700/0703 07005KT
       
RJFF 060330Z 34006KT 9999 FEW025 SCT040 BKN050 09/04 Q1029 NOSIG RMK 1CU025 4CU040 5SC050 A3040
RJFF 060300Z 32009KT 9999 VCSH FEW020 SCT030 BKN050 08/03 Q1029 NOSIG RMK 1CU020 3CU030 5SC050 A3041
TAF RJFF 052307Z 0600/0706 04006KT 9000 -SHRA FEW010 SCT020 BKN030 
     BECMG 0606/0608 14005KT 
     BECMG 0618/0621 33011KT
       
ROAH 060339Z 04016G26KT 9999 -RA FEW015 BKN045 OVC080 18/14 Q1020 RMK 1CU015 6SC045 8AS080 A3014
ROAH 060330Z 04016KT 9999 VCSH FEW015 BKN045 OVC080 18/14 Q1020 RMK 1CU015 5SC045 8AS080 A3014
ROAH 060300Z 04018KT 9999 VCSH FEW015 OVC080 18/14 Q1020 RMK 1CU015 8AS080 A3014
TAF ROAH 052305Z 0600/0706 04020KT 9000 -RA FEW010 BKN045 
     TEMPO 0602/0621 03028G38KT
       
RJCC 060330Z 36004KT 320V040 9999 -SHSN FEW025 BKN040 M01/M08 Q1021 RMK 1CU025 6CU040 A3015
RJCC 060300Z 34005KT 310V030 9999 -SHSN FEW025 BKN040 M01/M09 Q1021 RMK 1CU025 6CU040 A3016
TAF RJCC 052305Z 0600/0706 20005KT 9999 FEW020 BKN040 
     BECMG 0601/0603 32006KT 
     BECMG 0610/0612 23008KT
       
RJEC 060340Z 17006KT 5000 -SHSN FEW010 SCT025 BKN040 M04/M06 Q1018 RMK 1ST010 3CU025 5CU040 A3008
RJEC 060300Z 16006KT 3200 -SHSN FEW008 SCT020 BKN030 M04/M06 Q1018
TAF RJEC 052308Z 0600/0706 22010KT 9999 FEW015 BKN030
       
RJCK 060300Z 27008KT 220V310 9999 FEW040 00/M11 Q1017
TAF RJCK 052310Z 0600/0706 26011KT 9999 FEW030 SCT050 
     BECMG 0615/0618 22006KT
       
RJSA 060336Z 25010KT 4000 -SHSN FEW003 SCT005 BKN010 M02/M05 Q1022 RMK 1ST003 3ST005 6ST010 A3020
RJSA 060318Z 24009KT 2000 -SHSN FEW003 SCT005 BKN009 M02/M04 Q1022 RMK 1ST003 4ST005 6ST009 A3020
RJSA 060308Z 25008KT 220V290 3500 -SHSN FEW003 SCT006 BKN010 M02/M05 Q1022 RMK 1ST003 4ST006 6ST010 A3020
RJSA 060300Z 27008KT 230V300 1600 -SHSN FEW002 SCT005 BKN009 M02/M05 Q1022
TAF RJSA 052306Z 0600/0706 26010KT 8000 -SHSN FEW010 BKN020 BKN030 
     TEMPO 0600/0603 0700 SHSN FEW003 BKN005 BKN008 
     TEMPO 0603/0609 1500 -SHSN FEW005 BKN008 BKN015 
     TEMPO 0609/0612 0700 SHSN FEW003 BKN005 BKN008 
     TEMPO 0612/0621 3000 -SHSN
       
RJSK 060333Z 29003KT 230V350 9999 -SHSN FEW002 SCT005 BKN012 M00/M01 Q1024 RMK 1ST002 4ST005 6ST012 A3026
RJSK 060321Z 27003KT 230V300 4000 R28/2000N -SHSN FEW002 BKN005 BKN010 M00/M01 Q1024 RMK 1ST002 5ST005 6ST010 A3026
RJSK 060309Z VRB02KT 1000 R28/P2000N -SHSNGS FEW002 BKN004 BKN010 M00/M01 Q1024 RMK 1ST002 5ST004 6ST010 A3026 SNOW PELLETS
RJSK 060300Z 36004KT 320V040 9999 -SHSN FEW002 SCT004 BKN010 M00/M01 Q1024
TAF RJSK 052310Z 0600/0706 30008KT 8000 -SHSN FEW010 BKN020 BKN030 
     TEMPO 0600/0606 0700 SHSN FEW003 BKN005 BKN008 
     TEMPO 0606/0615 3000 -SHSN 
     BECMG 0615/0618 14004KT 
     TEMPO 0615/0700 1500 -SHSN FEW005 BKN008 BKN015
       
RJSN 060325Z 29010KT 9999 FEW008 SCT030 BKN040 05/M00 Q1027 RMK 1CU008 3CU030 6CU040 A3034
RJSN 060300Z 23005KT 180V300 9999 FEW008 SCT030 BKN040 03/01 Q1027
TAF RJSN 052305Z 0600/0706 31022KT 6000 -SHSNRA FEW008 BKN015 
     BECMG 0604/0606 29012KT 
     BECMG 0615/0618 18006KT 
     TEMPO 0615/0621 2000 -SHSN
       
RJSF 060300Z 32010KT 270V350 9999 FEW020 SCT030 BKN040 03/M05 Q1023
TAF RJSF 052305Z 0600/0706 32013KT 9999 FEW020 SCT040 
     BECMG 0700/0703 18005KT
       
RJSS 060300Z 31017KT 9999 FEW025 06/M05 Q1024
TAF RJSS 052307Z 0600/0706 34004KT 9999 FEW020 SCT040 
     BECMG 0600/0602 30015KT 
     TEMPO 0602/0606 30020G30KT 
     BECMG 0607/0609 30004KT
       
RJOK 060300Z 34010KT 9999 FEW025 SCT170 BKN/// 10/M02 Q1026
TAF RJOK 052309Z 0600/0706 35012KT 9999 FEW030
       
RJOM 060300Z 01011KT 340V050 9999 FEW030 BKN/// 09/01 Q1028
TAF RJOM 052307Z 0600/0706 36009KT 9999 FEW030 SCT045 
     BECMG 0607/0609 08007KT 
     BECMG 0700/0703 01007KT
       
RJFO 060300Z 33009KT 9999 FEW030 BKN/// 09/02 Q1028
TAF RJFO 052305Z 0600/0706 34008KT 9999 FEW030 BKN050
       
RJFU 060300Z 36007KT 320V050 9999 FEW030 BKN/// 09/M02 Q1030
TAF RJFU 052305Z 0600/0706 01010KT 9999 FEW040
       
RJFT 060300Z VRB02KT 9999 FEW035 SCT160 BKN/// 07/01 Q1029
TAF RJFT 052308Z 0600/0706 03004KT 9999 FEW040
       
RJFK 060300Z 34004KT 9999 FEW020 BKN100 06/01 Q1028 RMK 1CU020 7AC100 A3036 VOLCANIC ASH CLOUD S
TAF RJFK 052308Z 0600/0706 35006KT 9999 FEW030
       
RJFM 060300Z 35006KT 290V030 9999 FEW030 SCT110 BKN130 10/00 Q1027
TAF RJFM 052306Z 0600/0706 31007KT 9999 FEW030 
     BECMG 0600/0602 02006KT 
     BECMG 0612/0615 28011KT